Time;durP1;ratioP1;P1;durP2;ratioP2;P2;SDS_P1;SDS_P2;PMS_P1;PMS_P2;Temp;Humidity;BMP_temperature;BMP_pressure;BME280_temperature;BME280_humidity;BME280_pressure;Samples;Min_cycle;Max_cycle;Signal;HPM_P1;HPM_P2
2024/04/12 00:01:04;;;;;;;2.92;1.33;;;;;;;6.76;96.02;101375.53;5399110;26;19996;-71
2024/04/12 00:03:31;;;;;;;17.83;5.35;;;;;;;6.75;96.06;101381.53;5430856;26;20027;-70
2024/04/12 00:06:00;;;;;;;7.25;2.75;;;;;;;6.75;96.58;101384.13;5430557;26;20011;-72
2024/04/12 00:08:28;;;;;;;6.53;2.10;;;;;;;6.73;96.21;101383.22;5399526;26;20011;-71
2024/04/12 00:10:55;;;;;;;15.32;3.40;;;;;;;6.69;96.45;101384.88;5430391;26;20003;-72
2024/04/12 00:13:21;;;;;;;5.30;2.40;;;;;;;6.69;96.11;101374.56;5399241;26;19995;-71
2024/04/12 00:15:47;;;;;;;10.90;3.10;;;;;;;6.70;96.71;101371.13;5399410;26;20015;-71
2024/04/12 00:18:13;;;;;;;6.05;2.22;;;;;;;6.69;96.63;101372.81;5431075;26;20421;-72
2024/04/12 00:20:38;;;;;;;32.40;3.97;;;;;;;6.73;96.51;101380.63;5399148;26;20008;-71
2024/04/12 00:23:04;;;;;;;19.05;3.67;;;;;;;6.72;96.67;101369.47;5431023;26;20035;-72
2024/04/12 00:25:29;;;;;;;25.17;4.63;;;;;;;6.66;96.70;101372.75;5430521;26;20015;-71
2024/04/12 00:27:55;;;;;;;30.38;4.70;;;;;;;6.69;97.05;101390.88;5430909;26;20000;-72
2024/04/12 00:30:37;;;;;;;2.65;1.75;;;;;;;6.68;96.86;101394.31;5430949;26;20011;-72
2024/04/12 00:33:09;;;;;;;16.90;4.65;;;;;;;6.66;97.03;101388.22;5430743;26;20440;-71
2024/04/12 00:35:36;;;;;;;24.95;4.53;;;;;;;6.58;96.82;101379.47;5430401;26;20012;-70
2024/04/12 00:38:09;;;;;;;5.35;3.95;;;;;;;6.57;96.89;101377.69;5430551;26;20014;-71
2024/04/12 00:40:40;;;;;;;11.38;3.30;;;;;;;6.45;96.82;101357.66;5430372;26;20019;-70
2024/04/12 00:43:11;;;;;;;19.67;5.85;;;;;;;6.52;97.68;101368.97;5430448;26;20003;-71
2024/04/12 00:45:45;;;;;;;35.22;4.57;;;;;;;6.56;97.65;101374.25;5398731;26;20054;-71
2024/04/12 00:48:11;;;;;;;17.58;2.67;;;;;;;6.54;97.92;101368.19;5398778;26;20011;-71
2024/04/12 00:50:37;;;;;;;7.32;3.10;;;;;;;6.52;98.17;101366.38;5430210;26;20010;-69
2024/04/12 00:53:03;;;;;;;20.15;3.50;;;;;;;6.50;98.03;101362.91;5429830;26;20003;-71
2024/04/12 00:55:35;;;;;;;10.93;2.90;;;;;;;6.53;98.36;101358.69;5398354;26;20010;-72
2024/04/12 00:58:00;;;;;;;8.27;3.08;;;;;;;6.51;98.57;101356.91;5398569;26;20010;-71
2024/04/12 01:00:35;;;;;;;3.53;1.25;;;;;;;6.50;98.40;101356.03;5430331;26;20007;-71
2024/04/12 01:03:05;;;;;;;14.48;3.35;;;;;;;6.50;98.33;101365.50;5429801;26;20320;-70
2024/04/12 01:05:32;;;;;;;13.35;4.25;;;;;;;6.47;98.41;101361.13;5429540;26;20078;-70
2024/04/12 01:08:00;;;;;;;28.63;3.70;;;;;;;6.47;98.46;101363.69;5430111;26;20119;-71
2024/04/12 01:10:25;;;;;;;7.20;1.88;;;;;;;6.53;98.79;101368.16;5397664;26;20003;-71
2024/04/12 01:12:56;;;;;;;6.97;2.42;;;;;;;6.53;98.33;101375.88;5398049;26;20002;-70
2024/04/12 01:15:23;;;;;;;21.98;4.00;;;;;;;6.49;98.91;101374.06;5398153;26;20010;-71
2024/04/12 01:17:51;;;;;;;9.95;2.63;;;;;;;6.47;98.85;101373.16;5429899;26;20010;-71
2024/04/12 01:20:17;;;;;;;5.78;1.13;;;;;;;6.48;98.94;101374.91;5427921;26;20010;-71
2024/04/12 01:22:44;;;;;;;16.17;4.38;;;;;;;6.45;98.93;101370.56;5429411;26;20003;-71
2024/04/12 01:25:10;;;;;;;7.20;2.80;;;;;;;6.43;99.28;101369.63;5398138;26;20011;-70
2024/04/12 01:27:40;;;;;;;7.57;2.20;;;;;;;6.39;99.74;101368.66;5397949;26;20010;-70
2024/04/12 01:30:06;;;;;;;9.30;2.20;;;;;;;6.38;99.38;101359.19;5429642;26;20063;-71
2024/04/12 01:32:33;;;;;;;11.68;3.40;;;;;;;6.36;100.00;101352.28;5429647;26;20007;-70
2024/04/12 01:34:58;;;;;;;10.25;4.35;;;;;;;6.39;99.81;101354.94;5429179;26;20003;-72
2024/04/12 01:37:24;;;;;;;13.23;2.72;;;;;;;6.42;100.00;101366.16;5398193;26;20034;-71
2024/04/12 01:39:49;;;;;;;15.48;5.15;;;;;;;6.43;99.87;101367.06;5429305;26;20003;-71
2024/04/12 01:42:18;;;;;;;27.38;3.45;;;;;;;6.42;99.71;101371.31;5429344;26;20458;-71
2024/04/12 01:45:13;;;;;;;4.40;1.77;;;;;;;6.43;99.96;101372.22;5429452;26;20390;-71
2024/04/12 01:47:34;;;;;;;13.07;2.85;;;;;;;6.40;99.92;101367.84;5429085;26;20015;-70
2024/04/12 01:50:04;;;;;;;5.97;3.25;;;;;;;6.40;99.76;101365.28;5429405;26;20010;-71
2024/04/12 01:52:30;;;;;;;13.85;3.28;;;;;;;6.40;100.00;101367.84;5397616;26;20011;-70
2024/04/12 01:55:05;;;;;;;15.57;2.15;;;;;;;6.42;100.00;101376.47;5428918;26;20003;-69
2024/04/12 01:57:32;;;;;;;1.40;1.30;;;;;;;6.35;100.00;101356.56;5429321;26;20009;-70
2024/04/12 01:59:57;;;;;;;21.60;3.72;;;;;;;6.42;100.00;101360.16;5397519;26;20249;-71
2024/04/12 02:02:23;;;;;;;11.18;3.45;;;;;;;6.40;100.00;101360.13;5397525;26;20068;-70
2024/04/12 02:04:56;;;;;;;3.15;1.45;;;;;;;6.38;100.00;101359.19;5397604;26;20049;-69
2024/04/12 02:07:27;;;;;;;26.60;1.88;;;;;;;6.35;100.00;101348.81;5428720;26;20078;-70
2024/04/12 02:10:07;;;;;;;15.85;1.90;;;;;;;6.32;100.00;101333.25;5429040;26;20014;-71
2024/04/12 02:12:36;;;;;;;15.07;3.35;;;;;;;6.36;100.00;101337.66;5428668;26;20014;-70
2024/04/12 02:15:19;;;;;;;14.75;2.83;;;;;;;6.35;100.00;101338.50;5428537;26;20479;-68
2024/04/12 02:17:57;;;;;;;9.45;3.30;;;;;;;6.33;100.00;101335.00;5428975;26;19999;-69
2024/04/12 02:20:23;;;;;;;4.22;1.77;;;;;;;6.33;100.00;101327.25;5428728;26;20003;-70
2024/04/12 02:22:49;;;;;;;7.93;2.60;;;;;;;6.34;100.00;101331.59;5397260;26;20003;-71
2024/04/12 02:25:19;;;;;;;15.30;2.85;;;;;;;6.30;100.00;101340.09;5397503;26;20011;-70
2024/04/12 02:27:46;;;;;;;8.52;1.98;;;;;;;6.25;100.00;101331.34;5428536;26;20004;-70
2024/04/12 02:30:12;;;;;;;7.32;3.42;;;;;;;6.28;100.00;101326.28;5397302;26;20013;-70
2024/04/12 02:32:39;;;;;;;32.67;3.50;;;;;;;6.25;100.00;101331.34;5428599;26;19996;-70
2024/04/12 02:35:04;;;;;;;4.75;2.38;;;;;;;6.26;100.00;101333.13;5428485;26;19999;-68
2024/04/12 02:37:30;;;;;;;9.05;2.63;;;;;;;6.24;100.00;101334.78;5428681;26;20027;-68
2024/04/12 02:39:55;;;;;;;10.60;3.35;;;;;;;6.23;100.00;101333.03;5428095;26;20000;-69
2024/04/12 02:42:22;;;;;;;39.75;4.45;;;;;;;6.18;100.00;101336.34;5428614;26;20057;-69
2024/04/12 02:44:47;;;;;;;53.60;4.10;;;;;;;6.22;100.00;101346.75;5428606;26;20003;-69
2024/04/12 02:47:14;;;;;;;17.60;2.45;;;;;;;6.23;100.00;101335.63;5428505;26;20080;-69
2024/04/12 02:49:40;;;;;;;17.50;3.72;;;;;;;6.23;100.00;101336.47;5428373;26;20033;-69
2024/04/12 02:52:07;;;;;;;21.85;2.25;;;;;;;6.22;100.00;101334.75;5396751;26;20013;-69
2024/04/12 02:54:35;;;;;;;17.90;5.15;;;;;;;6.25;100.00;101337.38;5428208;26;20031;-69
2024/04/12 02:57:02;;;;;;;4.68;0.90;;;;;;;6.20;100.00;101326.09;5397110;26;19995;-70
2024/04/12 02:59:27;;;;;;;11.55;2.60;;;;;;;6.18;100.00;101327.78;5428384;26;20324;-69
2024/04/12 03:01:54;;;;;;;2.53;2.38;;;;;;;6.22;100.00;101339.00;5427855;26;20010;-69
2024/04/12 03:04:20;;;;;;;16.00;3.95;;;;;;;6.19;100.00;101327.81;5428291;26;20004;-69
2024/04/12 03:06:45;;;;;;;5.88;3.33;;;;;;;6.20;100.00;101329.53;5428045;26;20007;-69
2024/04/12 03:09:11;;;;;;;7.45;2.47;;;;;;;6.20;100.00;101326.97;5428164;26;20183;-69
2024/04/12 03:11:37;;;;;;;12.63;2.22;;;;;;;6.27;100.00;101342.59;5396395;26;20011;-69
2024/04/12 03:14:09;;;;;;;21.08;3.50;;;;;;;6.32;100.00;101338.41;5428214;26;20011;-68
2024/04/12 03:16:37;;;;;;;25.77;3.53;;;;;;;6.36;100.00;101349.69;5428090;26;20367;-69
2024/04/12 03:19:07;;;;;;;14.10;3.97;;;;;;;6.33;100.00;101335.00;5428233;26;20014;-69
2024/04/12 03:21:34;;;;;;;10.02;3.83;;;;;;;6.24;100.00;101315.03;5428026;26;20003;-68
2024/04/12 03:24:01;;;;;;;2.53;0.98;;;;;;;6.30;100.00;101334.94;5428151;26;20011;-69
2024/04/12 03:26:27;;;;;;;14.48;4.43;;;;;;;6.27;100.00;101337.44;5427987;26;20004;-69
2024/04/12 03:28:54;;;;;;;17.58;3.75;;;;;;;6.28;100.00;101331.44;5427855;26;20000;-69
2024/04/12 03:31:25;;;;;;;12.88;2.05;;;;;;;6.27;100.00;101325.41;5396620;26;20004;-68
2024/04/12 03:33:50;;;;;;;6.10;3.05;;;;;;;6.29;100.00;101326.31;5426865;26;19999;-69
2024/04/12 03:36:28;;;;;;;19.65;4.25;;;;;;;6.33;100.00;101322.09;5396222;26;20097;-69
2024/04/12 03:41:38;;;;;;;3.33;1.55;;;;;;;6.34;100.00;101316.13;5428184;26;20085;-69
2024/04/12 03:44:08;;;;;;;10.82;5.90;;;;;;;6.35;100.00;101311.81;5395877;26;20015;-69
2024/04/12 03:46:34;;;;;;;9.23;3.33;;;;;;;6.35;100.00;101315.28;5427281;26;19999;-69
2024/04/12 03:49:02;;;;;;;8.02;2.75;;;;;;;6.31;100.00;101310.91;5427503;26;20003;-69
2024/04/12 03:51:29;;;;;;;10.80;3.80;;;;;;;6.33;100.00;101301.47;5427129;26;20000;-69
2024/04/12 03:54:10;;;;;;;3.08;2.33;;;;;;;6.35;100.00;101307.53;5427283;26;20003;-69
2024/04/12 03:56:36;;;;;;;26.92;1.85;;;;;;;6.30;100.00;101296.25;5427370;26;20011;-69
2024/04/12 03:59:02;;;;;;;6.80;2.05;;;;;;;6.35;100.00;101301.50;5427585;26;20003;-69
2024/04/12 04:01:31;;;;;;;8.60;2.80;;;;;;;6.37;100.00;101311.03;5426787;26;20006;-69
2024/04/12 04:04:00;;;;;;;19.75;3.13;;;;;;;6.43;100.00;101306.03;5395736;26;19995;-69
2024/04/12 04:06:35;;;;;;;12.27;3.20;;;;;;;6.41;100.00;101307.69;5426760;26;20000;-70
2024/04/12 04:09:05;;;;;;;12.15;3.00;;;;;;;6.40;100.00;101305.94;5427171;26;20014;-69
2024/04/12 04:11:34;;;;;;;7.97;2.00;;;;;;;6.39;100.00;101299.03;5426537;26;20440;-68
2024/04/12 04:14:08;;;;;;;8.25;1.73;;;;;;;6.45;100.00;101300.91;5395311;26;20018;-69
2024/04/12 04:16:36;;;;;;;12.52;2.80;;;;;;;6.46;100.00;101302.63;5426867;26;20008;-70
2024/04/12 04:19:12;;;;;;;6.88;3.05;;;;;;;6.46;100.00;101292.31;5426868;26;19999;-69
2024/04/12 04:21:38;;;;;;;6.07;2.13;;;;;;;6.52;100.00;101299.31;5426122;26;20008;-68
2024/04/12 04:24:10;;;;;;;15.75;3.42;;;;;;;6.54;100.00;101292.47;5426457;26;20328;-68
2024/04/12 04:26:36;;;;;;;12.10;3.15;;;;;;;6.61;100.00;101296.97;5426785;26;20016;-69
2024/04/12 04:29:02;;;;;;;18.98;2.28;;;;;;;6.60;100.00;101302.94;5426430;26;20003;-69
2024/04/12 04:31:52;;;;;;;22.88;3.28;;;;;;;6.66;100.00;101303.06;5426640;26;20003;-69
2024/04/12 04:34:22;;;;;;;5.38;1.83;;;;;;;6.72;100.00;101311.81;5426142;26;20018;-69
2024/04/12 04:36:49;;;;;;;24.30;2.83;;;;;;;6.66;100.00;101300.50;5425962;26;20045;-69
2024/04/12 04:39:17;;;;;;;20.38;3.80;;;;;;;6.76;100.00;101308.44;5394817;26;19995;-68
2024/04/12 04:41:47;;;;;;;25.63;4.10;;;;;;;6.79;100.00;101303.34;5424197;26;19995;-68
2024/04/12 04:44:14;;;;;;;14.10;3.05;;;;;;;6.79;100.00;101293.00;5425945;26;20444;-70
2024/04/12 04:46:51;;;;;;;14.23;4.15;;;;;;;6.86;100.00;101302.66;5427983;26;20000;-67
2024/04/12 04:49:23;;;;;;;13.63;3.33;;;;;;;6.94;100.00;101308.84;5429867;26;20440;-67
2024/04/12 04:51:48;;;;;;;;;;;;;;;7.02;100.00;101308.13;5430039;26;20000;-68
2024/04/12 04:54:16;;;;;;;4.75;3.15;;;;;;;7.02;100.00;101303.84;5429571;26;19932;-67
2024/04/12 04:56:44;;;;;;;31.75;4.25;;;;;;;7.00;100.00;101299.47;5429858;26;20006;-68
2024/04/12 04:59:16;;;;;;;11.88;3.92;;;;;;;7.11;100.00;101294.56;5429985;26;20436;-68
2024/04/12 05:01:48;;;;;;;21.05;5.13;;;;;;;7.18;100.00;101307.63;5429997;26;20014;-66
2024/04/12 05:04:20;;;;;;;5.38;2.33;;;;;;;7.19;100.00;101287.81;5429876;26;19999;-67
2024/04/12 05:06:47;;;;;;;9.25;2.78;;;;;;;7.21;100.00;101296.47;5429736;26;20031;-66
2024/04/12 05:09:13;;;;;;;17.23;2.10;;;;;;;7.22;100.00;101287.88;5429271;26;20004;-66
2024/04/12 05:11:39;;;;;;;6.68;2.72;;;;;;;7.24;100.00;101278.44;5429938;26;20012;-66
2024/04/12 05:14:14;;;;;;;9.45;3.03;;;;;;;7.31;100.00;101292.38;5429546;26;20064;-66
2024/04/12 05:16:43;;;;;;;11.27;2.10;;;;;;;7.33;100.00;101293.28;5429417;26;20436;-69
2024/04/12 05:19:08;;;;;;;13.02;2.45;;;;;;;7.39;100.00;101295.09;5398293;26;20440;-69
2024/04/12 05:21:42;;;;;;;16.02;4.35;;;;;;;7.39;100.00;101295.09;5429268;26;20028;-70
2024/04/12 05:24:11;;;;;;;17.92;3.10;;;;;;;7.45;100.00;101284.88;5429893;26;20004;-70
2024/04/12 05:26:41;;;;;;;15.55;4.28;;;;;;;7.54;100.00;101284.19;5429764;26;20000;-69
2024/04/12 05:29:17;;;;;;;5.20;2.78;;;;;;;7.57;100.00;101282.50;5429481;26;20011;-68
2024/04/12 05:31:45;;;;;;;16.98;2.75;;;;;;;7.62;100.00;101267.09;5429940;26;19999;-68
2024/04/12 05:34:12;;;;;;;6.07;2.55;;;;;;;7.68;100.00;101256.84;5398388;26;20394;-68
2024/04/12 05:36:41;;;;;;;5.25;2.55;;;;;;;7.74;100.00;101265.56;5429257;26;20004;-68
2024/04/12 05:39:11;;;;;;;2.67;1.67;;;;;;;7.77;100.00;101265.59;5398550;26;20015;-69
2024/04/12 05:41:37;;;;;;;3.70;1.70;;;;;;;7.81;100.00;101249.31;5429780;26;19999;-69
2024/04/12 05:44:03;;;;;;;8.60;4.32;;;;;;;7.85;100.00;101242.47;5429412;26;20428;-68
2024/04/12 05:46:29;;;;;;;9.27;2.53;;;;;;;7.91;100.00;101251.22;5429358;26;20086;-69
2024/04/12 05:48:54;;;;;;;16.95;3.13;;;;;;;7.95;100.00;101246.97;5429621;26;20000;-69
2024/04/12 05:51:20;;;;;;;17.92;3.97;;;;;;;8.09;100.00;101256.63;5397347;26;20053;-68
2024/04/12 05:53:51;;;;;;;8.20;3.22;;;;;;;8.25;100.00;101244.81;5429139;26;20015;-69
2024/04/12 05:56:25;;;;;;;13.17;2.53;;;;;;;8.34;100.00;101225.97;5429535;26;20034;-69
2024/04/12 05:58:51;;;;;;;11.65;2.75;;;;;;;8.41;100.00;101236.44;5429030;26;20031;-68
2024/04/12 06:01:17;;;;;;;16.33;4.00;;;;;;;8.59;100.00;101242.75;5429459;26;20015;-68
2024/04/12 06:03:42;;;;;;;8.48;3.13;;;;;;;8.73;100.00;101231.69;5397988;26;20003;-68
2024/04/12 06:06:13;;;;;;;8.32;2.78;;;;;;;8.93;100.00;101255.22;5429006;26;20023;-69
2024/04/12 06:08:41;;;;;;;8.27;2.95;;;;;;;8.97;100.00;101264.78;5429226;26;20004;-69
2024/04/12 06:11:09;;;;;;;14.25;4.78;;;;;;;8.96;100.00;101259.59;5391762;26;20015;-69
2024/04/12 06:13:40;;;;;;;8.60;1.50;;;;;;;9.02;100.00;101278.69;5393794;26;20345;-69
2024/04/12 06:16:07;;;;;;;5.35;0.93;;;;;;;8.92;100.00;101282.00;5391535;26;20015;-70
2024/04/12 06:18:33;;;;;;;13.32;3.95;;;;;;;8.79;100.00;101271.47;5393473;26;20007;-70
2024/04/12 06:21:01;;;;;;;6.88;4.38;;;;;;;8.73;100.00;101275.69;5393568;26;20058;-69
2024/04/12 06:23:26;;;;;;;6.70;2.63;;;;;;;8.66;100.00;101262.69;5393411;26;20044;-70
2024/04/12 06:25:58;;;;;;;5.43;1.65;;;;;;;8.67;100.00;101259.22;5393420;26;20015;-69
2024/04/12 06:28:24;;;;;;;21.70;4.72;;;;;;;8.61;100.00;101241.03;5393307;26;20004;-69
2024/04/12 06:30:52;;;;;;;10.43;2.88;;;;;;;8.62;100.00;101247.97;5393469;26;20010;-70
2024/04/12 06:33:22;;;;;;;14.38;4.78;;;;;;;8.65;100.00;101241.94;5393419;26;20005;-70
2024/04/12 06:35:49;;;;;;;15.77;2.65;;;;;;;8.74;100.00;101241.22;5391721;26;20162;-69
2024/04/12 06:38:21;;;;;;;10.38;3.10;;;;;;;8.71;100.00;101223.91;5392872;26;20000;-69
2024/04/12 06:40:57;;;;;;;12.05;2.67;;;;;;;8.71;100.00;101223.03;5393416;26;20078;-68
2024/04/12 06:43:23;;;;;;;14.77;2.42;;;;;;;8.77;100.00;101215.34;5393003;26;20000;-69
2024/04/12 06:45:58;;;;;;;9.18;3.20;;;;;;;8.79;100.00;101211.94;5393134;26;20007;-69
2024/04/12 06:48:26;;;;;;;3.45;2.60;;;;;;;8.80;100.00;101211.06;5391436;26;20000;-69
2024/04/12 06:50:59;;;;;;;4.32;2.72;;;;;;;8.80;100.00;101205.03;5393393;26;20008;-68
2024/04/12 06:53:25;;;;;;;6.68;3.20;;;;;;;8.85;100.00;101195.56;5393459;26;20062;-69
2024/04/12 06:55:58;;;;;;;5.93;3.03;;;;;;;8.89;100.00;101207.72;5393022;26;20015;-70
2024/04/12 06:58:27;;;;;;;16.90;3.35;;;;;;;8.91;100.00;101197.38;5392994;26;20004;-68
2024/04/12 07:00:57;;;;;;;9.93;3.95;;;;;;;8.92;100.00;101196.53;5391102;26;20000;-69
2024/04/12 07:03:23;;;;;;;6.72;1.98;;;;;;;8.91;100.00;101193.06;5392922;26;20018;-69
2024/04/12 07:05:53;;;;;;;8.10;2.97;;;;;;;8.89;100.00;101175.78;5392946;26;20000;-68
2024/04/12 07:08:25;;;;;;;21.92;3.88;;;;;;;8.90;100.00;101182.69;5392196;26;20004;-67
2024/04/12 07:10:51;;;;;;;5.00;1.65;;;;;;;8.93;100.00;101169.75;5398221;26;19999;-67
2024/04/12 07:13:17;;;;;;;4.82;2.03;;;;;;;8.85;100.00;101167.09;5397275;26;20050;-67
2024/04/12 07:15:45;;;;;;;8.85;3.95;;;;;;;8.81;100.00;101170.50;5428485;26;20107;-69
2024/04/12 07:18:11;;;;;;;7.00;1.73;;;;;;;8.82;100.00;101169.66;5428604;26;20014;-69
2024/04/12 07:20:40;;;;;;;7.57;2.17;;;;;;;8.72;100.00;101160.06;5396921;26;19999;-70
2024/04/12 07:23:08;;;;;;;7.18;2.80;;;;;;;8.72;100.00;101170.41;5428273;26;19999;-70
2024/04/12 07:25:34;;;;;;;7.55;2.75;;;;;;;8.67;100.00;101167.78;5396878;26;20007;-70
2024/04/12 07:28:00;;;;;;;17.25;2.70;;;;;;;8.64;100.00;101152.22;5428690;26;19996;-70
2024/04/12 07:30:27;;;;;;;24.77;2.92;;;;;;;8.60;100.00;101146.13;5396416;26;20003;-70
2024/04/12 07:32:53;;;;;;;7.63;3.35;;;;;;;8.58;100.00;101152.13;5427839;26;20036;-69
2024/04/12 07:35:26;;;;;;;4.68;3.28;;;;;;;8.52;100.00;101145.13;5428010;26;19999;-68
2024/04/12 07:37:59;;;;;;;7.45;3.25;;;;;;;8.53;100.00;101144.28;5427907;26;20010;-68
2024/04/12 07:40:29;;;;;;;16.05;2.88;;;;;;;8.51;100.00;101139.09;5427875;26;20027;-67
2024/04/12 07:42:57;;;;;;;8.13;3.08;;;;;;;8.54;100.00;101127.91;5427834;26;20024;-66
2024/04/12 07:45:24;;;;;;;3.95;2.63;;;;;;;8.56;100.00;101123.66;5427662;26;20004;-66
2024/04/12 07:47:55;;;;;;;9.32;2.45;;;;;;;8.61;100.00;101127.13;5428015;26;19999;-65
2024/04/12 07:50:28;;;;;;;4.47;2.70;;;;;;;8.63;100.00;101116.81;5396517;26;20007;-66
2024/04/12 07:53:21;;;;;;;7.57;2.15;;;;;;;8.57;100.00;101102.09;5427481;26;20077;-65
2024/04/12 07:55:55;;;;;;;4.68;3.50;;;;;;;8.61;100.00;101097.81;5396404;26;20358;-64
2024/04/12 07:58:26;;;;;;;4.28;2.38;;;;;;;8.65;100.00;101092.69;5427513;26;20072;-66
2024/04/12 08:00:54;;;;;;;2.58;1.73;;;;;;;8.65;100.00;101081.44;5396469;26;19996;-64
2024/04/12 08:03:19;;;;;;;6.22;2.42;;;;;;;8.67;100.00;101085.78;5427436;26;19999;-65
2024/04/12 08:08:45;;;;;;;6.95;1.80;;;;;;;8.72;100.00;101084.97;5251631;27;20047;-64
2024/04/12 08:11:34;;;;;;;11.07;3.92;;;;;;;8.70;100.00;101078.91;5251295;27;20018;-64
2024/04/12 08:14:08;;;;;;;4.88;2.75;;;;;;;8.70;100.00;101072.03;5251469;27;19995;-65
2024/04/12 08:16:46;;;;;;;3.17;2.30;;;;;;;8.63;100.00;101067.63;5251230;27;20017;-66
2024/04/12 08:19:13;;;;;;;2.28;1.77;;;;;;;8.59;100.00;101066.75;5251529;27;20085;-65
2024/04/12 08:21:44;;;;;;;3.15;2.30;;;;;;;8.58;100.00;101070.16;5253937;27;20059;-65
2024/04/12 08:24:14;;;;;;;3.70;2.55;;;;;;;8.57;100.00;101058.09;5254841;27;20014;-66
2024/04/12 08:26:46;;;;;;;6.32;3.63;;;;;;;8.60;100.00;101060.69;5254531;27;20509;-66
2024/04/12 08:29:29;;;;;;;2.00;1.85;;;;;;;8.71;100.00;101059.94;5254670;27;20018;-66
2024/04/12 08:32:13;;;;;;;6.60;3.30;;;;;;;8.75;100.00;101060.00;5254707;27;20039;-66
2024/04/12 08:34:45;;;;;;;4.07;2.85;;;;;;;8.86;100.00;101049.75;5254737;27;20018;-65
2024/04/12 08:37:16;;;;;;;4.15;3.05;;;;;;;8.91;100.00;101036.84;5254325;27;20014;-64
2024/04/12 08:39:46;;;;;;;2.85;2.28;;;;;;;9.04;100.00;101037.81;5254552;27;20070;-65
2024/04/12 08:42:14;;;;;;;3.55;3.05;;;;;;;9.04;100.00;101027.44;5254591;27;20439;-66
2024/04/12 08:44:44;;;;;;;4.35;2.40;;;;;;;9.08;100.00;101023.13;5309807;26;20003;-64
2024/04/12 08:47:29;;;;;;;5.25;2.83;;;;;;;9.12;100.00;101025.75;5399078;26;19999;-65
2024/04/12 08:50:04;;;;;;;4.95;2.85;;;;;;;9.17;100.00;101034.44;5430707;26;20057;-65
2024/04/12 08:52:42;;;;;;;2.20;1.15;;;;;;;9.18;100.00;101010.25;5430119;26;20011;-65
2024/04/12 08:55:13;;;;;;;1.05;1.05;;;;;;;9.20;100.00;101017.19;5430726;26;20471;-65
2024/04/12 08:57:41;;;;;;;0.30;0.30;;;;;;;9.23;100.00;101006.84;5398954;26;20000;-65
2024/04/12 09:00:08;;;;;;;0.30;0.30;;;;;;;9.26;100.00;101009.47;5398639;26;19999;-66
2024/04/12 09:02:48;;;;;;;0.30;0.30;;;;;;;9.29;100.00;101002.59;5430326;26;20003;-65
2024/04/12 09:05:13;;;;;;;0.40;0.40;;;;;;;9.32;100.00;100993.06;5398915;26;20004;-65
2024/04/12 09:07:42;;;;;;;2.58;2.38;;;;;;;9.26;100.00;100970.59;5430193;26;20080;-65
2024/04/12 09:10:08;;;;;;;0.30;0.30;;;;;;;9.26;100.00;100974.06;5430346;26;20012;-66
2024/04/12 09:12:36;;;;;;;0.40;0.40;;;;;;;9.28;100.00;100963.72;5429977;26;20014;-65
2024/04/12 09:15:03;;;;;;;0.30;0.30;;;;;;;9.20;100.00;100963.63;5430167;26;19995;-65
2024/04/12 09:17:29;;;;;;;0.30;0.30;;;;;;;9.23;100.00;100957.63;5430194;26;20004;-65
2024/04/12 09:20:03;;;;;;;5.68;1.30;;;;;;;9.18;100.00;100948.09;5398923;26;19996;-65
2024/04/12 09:22:29;;;;;;;0.30;0.30;;;;;;;9.24;100.00;100930.84;5429907;26;20037;-66
2024/04/12 09:25:14;;;;;;;0.40;0.40;;;;;;;9.23;100.00;100929.13;5430038;26;19995;-65
2024/04/12 09:27:44;;;;;;;0.30;0.30;;;;;;;9.20;100.00;100923.94;5398715;26;20014;-65
2024/04/12 09:33:20;;;;;;;0.43;0.43;;;;;;;9.21;100.00;100930.84;5361759;26;20003;-65
2024/04/12 09:35:50;;;;;;;0.30;0.30;;;;;;;9.23;100.00;100942.09;5428593;26;20020;-66
2024/04/12 09:38:16;;;;;;;2.15;1.70;;;;;;;9.28;100.00;100935.22;5429720;26;19995;-66
2024/04/12 09:40:52;;;;;;;0.43;0.40;;;;;;;9.32;100.00;100933.47;5398146;26;20080;-65
2024/04/12 09:46:00;;;;;;;0.40;0.40;;;;;;;9.38;100.00;100938.69;5429839;26;20003;-65
2024/04/12 10:38:34;;;;;;;0.30;0.30;;;;;;;9.36;100.00;100845.41;5429185;26;20014;-65
2024/04/12 10:41:02;;;;;;;0.30;0.30;;;;;;;9.31;100.00;100844.53;5429151;26;20000;-64
2024/04/12 10:43:35;;;;;;;0.30;0.30;;;;;;;9.24;100.00;100843.66;5396285;26;19995;-65
2024/04/12 10:46:02;;;;;;;0.30;0.30;;;;;;;9.20;100.00;100841.03;5428917;26;20014;-65
2024/04/12 10:48:29;;;;;;;0.30;0.30;;;;;;;9.13;100.00;100834.94;5397676;26;20032;-65
2024/04/12 10:50:54;;;;;;;0.30;0.30;;;;;;;9.10;100.00;100822.00;5429079;26;20027;-65
2024/04/12 10:53:20;;;;;;;0.30;0.30;;;;;;;9.08;100.00;100806.44;5428925;26;20003;-64
2024/04/12 10:55:45;;;;;;;0.30;0.30;;;;;;;9.01;100.00;100812.47;5428752;26;20053;-64
2024/04/12 10:58:14;;;;;;;0.30;0.30;;;;;;;9.01;100.00;100799.53;5428923;26;20026;-66
2024/04/12 11:00:47;;;;;;;0.30;0.30;;;;;;;8.97;100.00;100793.44;5428726;26;20003;-65
2024/04/12 11:03:18;;;;;;;0.38;0.38;;;;;;;8.88;100.00;100793.41;5428811;26;20355;-64
2024/04/12 11:05:48;;;;;;;0.40;0.40;;;;;;;8.91;100.00;100807.22;5429143;26;19999;-65
2024/04/12 11:08:14;;;;;;;0.38;0.38;;;;;;;8.87;100.00;100787.34;5428650;26;20036;-66
2024/04/12 11:10:40;;;;;;;0.75;0.75;;;;;;;8.85;100.00;100796.00;5428780;26;20010;-66
2024/04/12 11:13:07;;;;;;;0.30;0.30;;;;;;;8.80;100.00;100785.59;5428761;26;20023;-65
2024/04/12 11:31:48;;;;;;;0.32;0.32;;;;;;;8.82;100.00;100783.03;5428732;26;20014;-64
2024/04/12 11:34:20;;;;;;;0.30;0.30;;;;;;;8.81;100.00;100784.75;5397048;26;20004;-66
2024/04/12 11:36:46;;;;;;;0.30;0.30;;;;;;;8.78;100.00;100767.47;5428298;26;20011;-65
2024/04/12 11:39:17;;;;;;;0.30;0.30;;;;;;;8.82;100.00;100768.34;5397143;26;20019;-66
2024/04/12 11:41:46;;;;;;;0.40;0.40;;;;;;;8.83;100.00;100743.31;5396673;26;20008;-65
2024/04/12 11:44:18;;;;;;;0.30;0.30;;;;;;;8.84;100.00;100758.88;5428467;26;20004;-65
2024/04/12 11:46:55;;;;;;;0.30;0.30;;;;;;;8.82;100.00;100750.22;5428300;26;20367;-65
2024/04/12 11:49:25;;;;;;;0.30;0.30;;;;;;;8.85;100.00;100742.47;5428426;26;20011;-66
2024/04/12 11:51:59;;;;;;;0.30;0.30;;;;;;;8.87;100.00;100752.81;5428082;26;20073;-65
2024/04/12 11:54:31;;;;;;;0.30;0.30;;;;;;;8.88;100.00;100751.97;5428387;26;20008;-65
2024/04/12 11:57:01;;;;;;;0.30;0.30;;;;;;;8.84;100.00;100751.09;5431110;26;19999;-65
2024/04/12 11:59:27;;;;;;;0.40;0.40;;;;;;;8.89;100.00;100759.75;5400042;26;20010;-65
2024/04/12 12:01:59;;;;;;;0.40;0.40;;;;;;;8.89;100.00;100748.53;5431623;26;20011;-65
2024/04/12 12:04:28;;;;;;;0.40;0.40;;;;;;;8.86;100.00;100748.50;5431831;26;20014;-65
2024/04/12 12:06:55;;;;;;;0.30;0.30;;;;;;;8.84;100.00;100751.09;5431254;26;20027;-65
2024/04/12 12:09:20;;;;;;;0.30;0.30;;;;;;;8.80;100.00;100741.59;5431710;26;20014;-65
2024/04/12 12:11:49;;;;;;;0.30;0.30;;;;;;;8.77;100.00;100741.59;5431330;26;20008;-65
2024/04/12 12:14:18;;;;;;;0.30;0.30;;;;;;;8.77;100.00;100732.06;5431382;26;19995;-65
2024/04/12 12:16:44;;;;;;;0.30;0.30;;;;;;;8.79;100.00;100739.84;5399893;26;20014;-66
2024/04/12 12:19:13;;;;;;;0.30;0.30;;;;;;;8.77;100.00;100721.72;5431343;26;20082;-65
2024/04/12 12:21:38;;;;;;;0.30;0.30;;;;;;;8.78;100.00;100740.72;5430836;26;20003;-65
2024/04/12 12:24:04;;;;;;;0.30;0.30;;;;;;;8.79;100.00;100734.66;5431574;26;20015;-65
2024/04/12 12:26:31;;;;;;;0.30;0.30;;;;;;;8.78;100.00;100720.00;5431172;26;20004;-66
2024/04/12 12:28:57;;;;;;;0.30;0.30;;;;;;;8.82;100.00;100733.84;5431113;26;20053;-65
2024/04/12 12:31:23;;;;;;;0.40;0.40;;;;;;;8.85;100.00;100731.25;5431361;26;20003;-65
2024/04/12 12:33:49;;;;;;;0.30;0.30;;;;;;;8.84;100.00;100729.50;5431161;26;20315;-65
2024/04/12 12:36:16;;;;;;;0.30;0.30;;;;;;;8.85;100.00;100729.50;5431124;26;20006;-67
2024/04/12 12:38:45;;;;;;;0.40;0.40;;;;;;;8.89;100.00;100722.63;5431379;26;20004;-64
2024/04/12 12:41:10;;;;;;;0.30;0.30;;;;;;;8.91;100.00;100720.91;5430952;26;20080;-65
2024/04/12 12:43:40;;;;;;;0.30;0.30;;;;;;;8.95;100.00;100714.88;5430936;26;20007;-65
2024/04/12 12:46:07;;;;;;;0.30;0.30;;;;;;;8.97;100.00;100699.34;5430848;26;19999;-65
2024/04/12 12:48:33;;;;;;;0.40;0.40;;;;;;;8.97;100.00;100709.72;5430828;26;20007;-65
2024/04/12 12:50:58;;;;;;;0.40;0.40;;;;;;;8.96;100.00;100692.44;5430955;26;20073;-65